createdAt,value
2023-05-24T00:03:19.546Z,7.22
2023-05-24T00:08:28.210Z,7.65
2023-05-24T00:13:37.686Z,7.50
2023-05-24T00:18:46.279Z,7.39
2023-05-24T00:23:55.706Z,7.81
2023-05-24T00:29:04.806Z,7.50
2023-05-24T00:34:14.024Z,8.23
2023-05-24T00:39:23.014Z,6.98
2023-05-24T00:44:32.431Z,8.59
2023-05-24T00:49:41.116Z,9.04
2023-05-24T00:54:50.236Z,11.39
2023-05-24T00:59:59.197Z,11.27
2023-05-24T01:05:08.438Z,9.33
2023-05-24T01:10:17.145Z,10.45
2023-05-24T01:15:26.341Z,8.83
2023-05-24T01:20:35.419Z,8.97
2023-05-24T01:25:44.408Z,8.74
2023-05-24T01:30:53.478Z,9.52
2023-05-24T01:36:02.964Z,11.39
2023-05-24T01:41:11.950Z,10.77
2023-05-24T01:46:21.254Z,10.43
2023-05-24T01:51:30.287Z,9.73
2023-05-24T01:56:39.513Z,8.94
2023-05-24T02:01:48.215Z,9.75
2023-05-24T02:06:57.276Z,12.09
2023-05-24T02:12:06.139Z,10.43
2023-05-24T02:17:15.335Z,9.67
2023-05-24T02:22:24.016Z,9.85
2023-05-24T02:27:32.878Z,8.93
2023-05-24T02:32:42.232Z,8.13
2023-05-24T02:37:51.097Z,9.84
2023-05-24T02:43:00.067Z,10.64
2023-05-24T02:48:09.353Z,8.11
2023-05-24T02:53:21.221Z,7.88
2023-05-24T02:58:20.017Z,9.30
2023-05-24T03:03:28.926Z,9.53
2023-05-24T03:08:38.073Z,8.13
2023-05-24T03:13:46.761Z,9.85
2023-05-24T03:18:55.874Z,11.24
2023-05-24T03:24:04.712Z,9.98
2023-05-24T03:29:14.179Z,11.75
2023-05-24T03:34:22.900Z,11.77
2023-05-24T03:39:31.910Z,13.98
2023-05-24T03:44:40.953Z,12.66
2023-05-24T03:49:50.422Z,12.20
2023-05-24T03:55:02.404Z,12.77
2023-05-24T04:00:01.900Z,11.81
2023-05-24T04:05:10.777Z,13.03
2023-05-24T04:10:20.153Z,11.56
2023-05-24T04:15:29.285Z,10.68
2023-05-24T04:20:38.930Z,10.16
2023-05-24T04:25:47.539Z,9.79
2023-05-24T04:30:56.545Z,7.75
2023-05-24T04:36:05.152Z,6.96
2023-05-24T04:41:14.761Z,7.01
2023-05-24T04:46:23.903Z,6.70
2023-05-24T05:12:10.154Z,4.78
2023-05-24T05:17:18.848Z,4.25
2023-05-24T05:22:29.437Z,4.20
2023-05-24T05:27:36.718Z,3.99
2023-05-24T05:32:46.251Z,3.71
2023-05-24T05:37:55.453Z,4.12
2023-05-24T05:43:04.746Z,3.71
2023-05-24T05:48:13.417Z,4.07
2023-05-24T05:53:22.774Z,3.80
2023-05-24T05:58:32.245Z,3.86
2023-05-24T06:03:41.426Z,4.24
2023-05-24T06:08:49.971Z,4.03
2023-05-24T06:13:59.581Z,4.18
2023-05-24T06:19:09.113Z,3.82
2023-05-24T06:24:18.244Z,4.12
2023-05-24T06:29:26.945Z,4.17
2023-05-24T06:34:36.514Z,4.17
2023-05-24T06:39:45.262Z,4.11
2023-05-24T06:44:54.582Z,4.37
2023-05-24T06:50:03.161Z,4.33
2023-05-24T06:55:12.684Z,4.10
2023-05-24T07:00:21.466Z,3.93
2023-05-24T07:05:31.229Z,4.18
2023-05-24T07:10:39.832Z,3.96
2023-05-24T07:15:48.918Z,3.95
2023-05-24T07:20:58.061Z,3.63
2023-05-24T07:26:07.163Z,3.35
2023-05-24T07:31:16.324Z,3.30
2023-05-24T07:36:25.915Z,3.69
2023-05-24T07:41:34.748Z,3.30
2023-05-24T07:46:44.025Z,3.56
2023-05-24T07:51:52.955Z,3.93
2023-05-24T07:57:02.336Z,3.96
2023-05-24T08:02:11.225Z,3.83
2023-05-24T08:07:20.599Z,4.03
2023-05-24T08:12:29.776Z,4.31
2023-05-24T08:17:39.137Z,4.12
2023-05-24T08:22:47.893Z,4.09
2023-05-24T08:27:57.230Z,3.92
2023-05-24T08:33:06.219Z,3.60
2023-05-24T08:38:15.207Z,3.69
2023-05-24T08:43:24.036Z,3.96
2023-05-24T08:48:33.320Z,3.83
2023-05-24T08:53:42.256Z,4.06
2023-05-24T08:58:51.166Z,3.72
2023-05-24T09:04:00.145Z,3.90
2023-05-24T09:09:09.313Z,3.32
2023-05-24T09:14:17.854Z,3.77
2023-05-24T09:19:26.988Z,3.63
2023-05-24T09:24:35.695Z,3.66
2023-05-24T09:29:45.432Z,3.76
2023-05-24T09:34:54.495Z,3.59
2023-05-24T09:40:03.747Z,3.61
2023-05-24T09:45:13.082Z,3.38
2023-05-24T09:50:22.623Z,3.60
2023-05-24T09:55:31.650Z,3.24
2023-05-24T10:00:41.239Z,3.25
2023-05-24T10:05:50.238Z,3.26
2023-05-24T10:10:59.469Z,3.12
2023-05-24T10:16:07.847Z,2.98
2023-05-24T10:21:19.103Z,2.84
2023-05-24T10:26:18.053Z,3.41
2023-05-24T10:31:27.302Z,3.07
2023-05-24T10:36:38.882Z,3.12
2023-05-24T10:41:37.962Z,3.14
2023-05-24T10:46:46.758Z,3.58
2023-05-24T10:51:56.257Z,4.05
2023-05-24T10:57:05.071Z,4.16
2023-05-24T11:02:14.516Z,3.84
2023-05-24T11:07:26.645Z,3.67
2023-05-24T11:12:25.581Z,3.77
2023-05-24T11:17:34.341Z,3.88
2023-05-24T11:22:43.482Z,3.67
2023-05-24T11:27:52.410Z,4.00
2023-05-24T11:33:01.928Z,3.87
2023-05-24T11:38:11.089Z,3.64
2023-05-24T11:43:20.518Z,3.83
2023-05-24T11:48:29.359Z,3.90
2023-05-24T11:53:39.020Z,3.57
2023-05-24T11:58:47.690Z,3.60
2023-05-24T12:03:57.021Z,3.72
2023-05-24T12:09:05.711Z,3.36
2023-05-24T12:14:15.126Z,3.33
2023-05-24T12:19:33.288Z,3.37
2023-05-24T12:24:32.943Z,3.39
2023-05-24T12:29:42.311Z,3.32
2023-05-24T12:34:51.349Z,3.13
2023-05-24T12:40:00.305Z,3.43
2023-05-24T12:45:09.591Z,3.05
2023-05-24T12:50:18.521Z,3.41
2023-05-24T12:55:27.801Z,3.26
2023-05-24T13:00:37.056Z,3.47
2023-05-24T13:05:46.390Z,3.24
2023-05-24T13:10:55.322Z,3.40
2023-05-24T13:16:07.536Z,3.48
2023-05-24T13:21:06.065Z,3.28
2023-05-24T13:26:15.471Z,3.45
2023-05-24T13:31:24.704Z,3.75
2023-05-24T13:36:33.963Z,3.50
2023-05-24T13:41:43.448Z,3.65
2023-05-24T13:46:52.094Z,3.81
2023-05-24T13:52:00.829Z,3.48
2023-05-24T13:57:10.435Z,3.60
2023-05-24T14:02:19.150Z,3.70
2023-05-24T14:07:27.987Z,3.37
2023-05-24T14:12:36.885Z,3.38
2023-05-24T14:17:45.981Z,3.46
2023-05-24T14:22:56.424Z,3.63
2023-05-24T14:28:03.413Z,3.53
2023-05-24T14:33:12.227Z,3.33
2023-05-24T14:38:21.234Z,2.94
2023-05-24T14:43:30.063Z,3.54
2023-05-24T14:48:39.356Z,3.42
2023-05-24T14:53:47.890Z,3.35
2023-05-24T14:58:57.190Z,3.30
2023-05-24T15:04:06.248Z,3.39
2023-05-24T15:09:15.746Z,3.37
2023-05-24T15:14:24.507Z,2.90
2023-05-24T15:19:33.500Z,2.71
2023-05-24T15:24:42.352Z,2.98
2023-05-24T15:29:51.733Z,2.87
2023-05-24T15:35:00.682Z,3.01
2023-05-24T15:40:09.418Z,3.03
2023-05-24T15:45:18.135Z,3.16
2023-05-24T15:50:53.999Z,3.68
2023-05-24T15:55:35.806Z,4.42
2023-05-24T16:00:45.264Z,3.57
2023-05-24T16:05:53.466Z,3.27
2023-05-24T16:11:03.154Z,4.47
2023-05-24T16:16:12.161Z,3.74
2023-05-24T16:21:21.235Z,3.55
2023-05-24T16:26:30.816Z,3.91
2023-05-24T16:31:40.317Z,4.15
2023-05-24T16:36:49.262Z,3.96
2023-05-24T16:42:00.316Z,4.38
2023-05-24T16:47:07.094Z,4.85
2023-05-24T16:52:16.401Z,4.21
2023-05-24T16:57:25.215Z,4.00
2023-05-24T17:02:35.741Z,3.77
2023-05-24T17:07:34.511Z,3.93
2023-05-24T17:12:43.824Z,4.11
2023-05-24T17:17:52.647Z,3.94
2023-05-24T17:23:03.038Z,3.97
2023-05-24T17:28:01.723Z,3.89
2023-05-24T17:33:11.555Z,3.96
2023-05-24T17:38:20.567Z,3.54
2023-05-24T17:43:29.690Z,3.65
2023-05-24T17:48:38.429Z,3.58
2023-05-24T17:53:48.129Z,3.77
2023-05-24T17:59:00.040Z,3.54
2023-05-24T18:03:59.074Z,3.94
2023-05-24T18:09:07.902Z,4.10
2023-05-24T18:14:17.176Z,4.05
2023-05-24T18:19:25.811Z,4.20
2023-05-24T18:24:35.156Z,4.63
2023-05-24T18:29:43.992Z,4.31
2023-05-24T18:34:53.265Z,5.19
2023-05-24T18:40:02.340Z,6.10
2023-05-24T18:45:11.944Z,5.63
2023-05-24T18:50:22.886Z,6.05
2023-05-24T18:55:29.264Z,6.68
2023-05-24T19:00:38.300Z,7.05
2023-05-24T19:05:47.776Z,6.51
2023-05-24T19:10:56.646Z,6.40
2023-05-24T19:16:05.615Z,5.80
2023-05-24T19:21:14.265Z,5.69
2023-05-24T19:26:23.394Z,5.61
2023-05-24T19:31:32.402Z,5.51
2023-05-24T19:36:40.828Z,5.77
2023-05-24T19:41:49.799Z,5.48
2023-05-24T19:46:58.953Z,5.66
2023-05-24T19:52:07.405Z,5.36
2023-05-24T19:57:16.332Z,4.97
2023-05-24T20:02:25.239Z,5.60
2023-05-24T20:07:34.592Z,5.43
2023-05-24T20:12:43.532Z,5.32
2023-05-24T20:17:53.531Z,4.78
2023-05-24T20:23:02.360Z,5.22
2023-05-24T20:28:25.755Z,5.20
2023-05-24T20:33:19.635Z,5.26
2023-05-24T20:38:28.782Z,4.56
2023-05-24T20:48:47.460Z,4.65
2023-05-24T20:53:56.471Z,4.43
2023-05-24T21:04:14.558Z,4.74
2023-05-24T21:19:42.204Z,5.54
2023-05-24T21:40:18.544Z,5.92
2023-05-24T21:45:27.407Z,5.89
2023-05-24T21:50:36.448Z,5.36
2023-05-24T21:55:46.401Z,4.86
2023-05-24T22:00:55.531Z,6.39
2023-05-24T22:06:07.469Z,5.82
2023-05-24T22:11:06.733Z,5.61
2023-05-24T22:16:15.522Z,6.39
2023-05-24T22:21:24.894Z,5.45
2023-05-24T22:26:33.710Z,5.23
2023-05-24T22:31:43.005Z,5.39
2023-05-24T22:36:52.069Z,6.99
2023-05-24T22:42:01.313Z,6.57
2023-05-24T22:47:10.564Z,5.26
2023-05-24T22:52:19.692Z,5.08
2023-05-24T22:57:28.415Z,6.65
2023-05-24T23:02:37.607Z,7.44
2023-05-24T23:07:46.911Z,5.93
2023-05-24T23:12:56.049Z,5.66
2023-05-24T23:18:05.176Z,5.57
2023-05-24T23:23:14.262Z,5.56
2023-05-24T23:28:23.222Z,6.64
2023-05-24T23:33:32.442Z,5.41
2023-05-24T23:38:41.235Z,5.78
2023-05-24T23:43:49.863Z,6.11
2023-05-24T23:48:58.624Z,7.80
2023-05-24T23:54:08.370Z,6.59
2023-05-24T23:59:17.647Z,5.54
